Time;durP1;ratioP1;P1;durP2;ratioP2;P2;SDS_P1;SDS_P2;PMS_P1;PMS_P2;Temp;Humidity;BMP_temperature;BMP_pressure;BME280_temperature;BME280_humidity;BME280_pressure;Samples;Min_cycle;Max_cycle;Signal;HPM_P1;HPM_P2
2023/08/19 00:01:48;;;;;;;7.50;6.40;;;;;;;21.64;100.00;99605.45;109637;1250;58988;-70
2023/08/19 00:04:15;;;;;;;11.90;5.50;;;;;;;21.51;100.00;99604.56;109630;1250;72327;-70
2023/08/19 00:06:42;;;;;;;6.70;5.80;;;;;;;21.39;100.00;99604.86;109670;1250;60237;-68
2023/08/19 00:09:09;;;;;;;8.10;5.10;;;;;;;21.28;100.00;99606.94;109642;1250;59748;-68
2023/08/19 00:11:36;;;;;;;7.60;5.40;;;;;;;21.19;100.00;99609.86;109572;1249;75311;-70
2023/08/19 00:14:04;;;;;;;6.50;5.10;;;;;;;21.13;100.00;99611.39;109640;1250;67255;-69
2023/08/19 00:16:30;;;;;;;9.80;5.90;;;;;;;21.08;100.00;99612.25;109613;1251;71386;-71
2023/08/19 00:18:57;;;;;;;8.20;7.10;;;;;;;21.05;100.00;99614.36;109534;1251;60068;-69
2023/08/19 00:21:23;;;;;;;7.70;5.70;;;;;;;21.02;100.00;99613.54;109602;1254;60102;-69
2023/08/19 00:23:50;;;;;;;5.60;5.20;;;;;;;20.99;100.00;99612.48;109714;1250;74378;-70
2023/08/19 00:26:17;;;;;;;6.00;5.50;;;;;;;20.93;100.00;99608.90;109686;1250;66357;-69
2023/08/19 00:28:43;;;;;;;5.90;5.40;;;;;;;20.89;100.00;99611.84;109525;1250;72744;-70
2023/08/19 00:31:10;;;;;;;5.80;5.20;;;;;;;20.88;100.00;99612.77;109589;1250;59796;-69
2023/08/19 00:33:36;;;;;;;7.00;5.10;;;;;;;20.88;100.00;99610.13;109659;1250;59962;-70
2023/08/19 00:36:03;;;;;;;5.50;4.90;;;;;;;20.88;100.00;99612.77;109684;1250;72690;-66
2023/08/19 00:38:30;;;;;;;5.50;5.00;;;;;;;20.88;100.00;99612.94;109642;1250;66677;-67
2023/08/19 00:40:57;;;;;;;7.00;5.20;;;;;;;20.88;100.00;99615.36;109671;1250;72413;-68
2023/08/19 00:43:23;;;;;;;5.70;5.10;;;;;;;20.88;100.00;99618.61;109628;1250;60176;-68
2023/08/19 00:45:50;;;;;;;5.50;4.40;;;;;;;20.90;100.00;99608.05;109571;1250;58951;-70
2023/08/19 00:48:18;;;;;;;5.60;5.10;;;;;;;20.89;100.00;99604.15;109570;1250;74689;-70
2023/08/19 00:50:45;;;;;;;5.00;4.60;;;;;;;20.88;100.00;99608.83;109566;1250;67878;-69
2023/08/19 00:53:12;;;;;;;8.10;5.60;;;;;;;20.87;100.00;99608.22;109501;1250;71405;-69
2023/08/19 00:55:38;;;;;;;5.80;5.30;;;;;;;20.86;100.00;99604.12;109637;1250;58948;-69
2023/08/19 00:58:07;;;;;;;6.50;5.90;;;;;;;20.88;100.00;99600.66;109532;1250;59028;-68
2023/08/19 01:00:34;;;;;;;6.90;5.40;;;;;;;20.90;100.00;99600.06;109564;1250;72718;-70
2023/08/19 01:03:01;;;;;;;6.00;5.40;;;;;;;20.90;100.00;99599.52;109674;1250;67623;-68
2023/08/19 01:05:35;;;;;;;5.60;5.00;;;;;;;20.90;100.00;99594.55;109656;1250;71567;-68
2023/08/19 01:08:01;;;;;;;5.50;5.00;;;;;;;20.92;100.00;99592.20;109536;1250;61927;-69
2023/08/19 01:10:47;;;;;;;7.10;5.30;;;;;;;20.91;100.00;99588.17;109553;1250;60391;-69
2023/08/19 01:13:18;;;;;;;5.60;5.00;;;;;;;20.88;100.00;99583.48;109637;1250;74961;-69
2023/08/19 01:15:51;;;;;;;5.40;4.90;;;;;;;20.88;100.00;99583.08;109584;1250;67699;-70
2023/08/19 01:18:18;;;;;;;5.90;5.00;;;;;;;20.85;100.00;99581.66;109602;1250;72569;-69
2023/08/19 01:20:45;;;;;;;9.50;5.60;;;;;;;20.82;100.00;99580.24;109524;1251;60108;-69
2023/08/19 01:23:27;;;;;;;6.30;5.30;;;;;;;20.81;100.00;99575.66;109552;1250;58992;-70
2023/08/19 01:25:54;;;;;;;6.40;5.80;;;;;;;20.82;100.00;99574.73;109563;1250;74469;-69
2023/08/19 01:28:20;;;;;;;7.60;5.00;;;;;;;20.82;100.00;99572.41;109411;1250;58969;-69
2023/08/19 01:30:47;;;;;;;5.30;4.70;;;;;;;20.82;100.00;99574.62;109649;1250;72385;-70
2023/08/19 01:33:15;;;;;;;7.90;5.00;;;;;;;20.81;100.00;99574.63;109504;1251;60297;-69
2023/08/19 01:35:53;;;;;;;5.30;4.80;;;;;;;20.80;100.00;99578.56;109531;1254;59037;-70
2023/08/19 01:38:48;;;;;;;5.90;4.70;;;;;;;20.78;100.00;99575.71;109673;1250;73412;-69
2023/08/19 01:41:15;;;;;;;6.20;4.90;;;;;;;20.73;100.00;99574.23;109642;1250;66382;-69
2023/08/19 01:43:42;;;;;;;5.80;5.30;;;;;;;20.68;100.00;99578.81;109570;1250;72429;-70
2023/08/19 01:46:09;;;;;;;6.30;5.00;;;;;;;20.63;100.00;99578.09;109601;1250;61942;-68
2023/08/19 01:48:36;;;;;;;7.00;5.00;;;;;;;20.59;100.00;99572.36;109550;1250;60939;-68
2023/08/19 01:51:02;;;;;;;4.90;4.50;;;;;;;20.54;100.00;99574.79;109704;1254;73095;-70
2023/08/19 01:53:29;;;;;;;6.20;5.60;;;;;;;20.49;100.00;99575.45;109673;1250;67951;-69
2023/08/19 01:55:56;;;;;;;5.60;4.90;;;;;;;20.41;100.00;99578.36;109600;1250;72003;-68
2023/08/19 01:58:22;;;;;;;6.70;5.40;;;;;;;20.36;100.00;99577.02;109574;1251;60008;-69
2023/08/19 02:00:49;;;;;;;5.90;5.40;;;;;;;20.27;100.00;99574.15;109541;1250;60134;-69
2023/08/19 02:03:16;;;;;;;5.40;4.90;;;;;;;20.21;100.00;99576.27;109657;1251;74615;-69
2023/08/19 02:05:43;;;;;;;5.50;5.00;;;;;;;20.17;100.00;99581.34;109631;1250;66686;-70
2023/08/19 02:08:09;;;;;;;5.30;4.80;;;;;;;20.15;100.00;99582.92;109626;1250;72448;-69
2023/08/19 02:10:36;;;;;;;5.50;5.00;;;;;;;20.15;100.00;99588.80;109509;1251;60106;-69
2023/08/19 02:13:03;;;;;;;6.00;5.40;;;;;;;20.17;100.00;99586.65;109683;1250;59301;-69
2023/08/19 02:15:29;;;;;;;6.70;5.20;;;;;;;20.17;100.00;99589.66;109652;1250;74711;-69
2023/08/19 02:17:56;;;;;;;11.50;5.30;;;;;;;20.14;100.00;99590.10;109621;1253;67897;-69
2023/08/19 02:20:23;;;;;;;14.50;5.60;;;;;;;20.07;100.00;99586.27;109653;1250;72706;-69
2023/08/19 02:22:49;;;;;;;7.90;5.00;;;;;;;20.01;100.00;99591.48;109675;1250;58980;-68
2023/08/19 02:25:16;;;;;;;5.20;4.70;;;;;;;19.95;100.00;99592.16;109556;1253;58920;-70
2023/08/19 02:27:43;;;;;;;7.70;4.50;;;;;;;19.90;100.00;99592.92;109662;1251;74366;-70
2023/08/19 02:30:10;;;;;;;5.60;5.20;;;;;;;19.82;100.00;99594.52;109704;1251;66357;-69
2023/08/19 02:32:38;;;;;;;6.10;5.10;;;;;;;19.74;100.00;99597.98;109728;1251;72635;-70
2023/08/19 02:35:05;;;;;;;5.70;5.00;;;;;;;19.68;100.00;99594.98;109597;1251;60595;-70
2023/08/19 02:37:34;;;;;;;6.30;5.80;;;;;;;19.61;100.00;99594.86;109503;1250;58908;-70
2023/08/19 02:40:03;;;;;;;6.00;5.50;;;;;;;19.58;100.00;99595.18;109570;1255;74453;-70
2023/08/19 02:42:30;;;;;;;5.30;4.90;;;;;;;19.55;100.00;99592.67;109599;1250;67821;-69
2023/08/19 02:44:57;;;;;;;6.10;5.40;;;;;;;19.54;100.00;99600.97;109646;1251;72456;-69
2023/08/19 02:47:24;;;;;;;5.30;4.80;;;;;;;19.57;100.00;99603.20;109506;1251;61718;-70
2023/08/19 02:49:50;;;;;;;6.20;5.60;;;;;;;19.59;100.00;99603.35;109534;1250;59101;-70
2023/08/19 02:52:18;;;;;;;5.80;5.10;;;;;;;19.58;100.00;99606.10;109640;1251;74590;-71
2023/08/19 02:54:45;;;;;;;6.60;6.00;;;;;;;19.57;100.00;99609.48;109591;1251;66544;-70
2023/08/19 02:57:11;;;;;;;6.10;5.50;;;;;;;19.56;100.00;99613.44;109651;1254;72519;-70
2023/08/19 02:59:38;;;;;;;8.20;6.00;;;;;;;19.55;100.00;99615.77;109484;1250;58919;-70
2023/08/19 03:02:05;;;;;;;6.60;5.70;;;;;;;19.60;100.00;99620.08;109584;1254;60118;-69
2023/08/19 03:04:31;;;;;;;5.90;5.20;;;;;;;19.67;100.00;99615.00;109646;1251;74617;-70
2023/08/19 03:06:58;;;;;;;5.70;5.20;;;;;;;19.72;100.00;99615.73;109599;1250;67711;-68
2023/08/19 03:09:24;;;;;;;8.10;5.60;;;;;;;19.74;100.00;99617.51;109655;1250;58978;-70
2023/08/19 03:11:51;;;;;;;6.90;5.60;;;;;;;19.70;100.00;99614.39;109532;1251;60100;-69
2023/08/19 03:14:17;;;;;;;5.80;5.20;;;;;;;19.66;100.00;99615.23;109509;1250;59044;-70
2023/08/19 03:16:44;;;;;;;6.60;6.00;;;;;;;19.64;100.00;99610.80;109621;1251;74772;-70
2023/08/19 03:19:11;;;;;;;7.30;5.70;;;;;;;19.63;100.00;99608.67;109613;1250;66560;-70
2023/08/19 03:21:37;;;;;;;5.50;5.00;;;;;;;19.62;100.00;99610.27;109663;1251;72509;-70
2023/08/19 03:24:04;;;;;;;6.20;5.70;;;;;;;19.62;100.00;99613.24;109632;1251;62149;-69
2023/08/19 03:26:31;;;;;;;5.30;4.80;;;;;;;19.65;100.00;99609.85;109609;1250;60330;-71
2023/08/19 03:28:58;;;;;;;5.50;5.00;;;;;;;19.72;100.00;99609.84;109506;1251;74929;-70
2023/08/19 03:31:24;;;;;;;5.70;5.20;;;;;;;19.83;100.00;99608.85;109558;1250;58954;-70
2023/08/19 03:33:52;;;;;;;6.00;5.50;;;;;;;19.93;100.00;99605.23;109486;1251;72955;-69
2023/08/19 03:36:19;;;;;;;5.90;5.30;;;;;;;20.04;100.00;99606.33;109521;1251;59023;-69
2023/08/19 03:38:45;;;;;;;8.90;5.90;;;;;;;20.11;100.00;99606.40;109548;1250;59125;-70
2023/08/19 03:41:12;;;;;;;7.30;5.80;;;;;;;20.17;100.00;99606.80;109631;1250;73631;-70
2023/08/19 03:43:39;;;;;;;6.80;5.40;;;;;;;20.26;100.00;99601.55;109677;1254;68020;-69
2023/08/19 03:46:05;;;;;;;5.10;4.60;;;;;;;20.35;100.00;99597.61;109512;1251;71218;-70
2023/08/19 03:48:32;;;;;;;6.80;4.80;;;;;;;20.42;100.00;99601.49;109554;1250;62203;-68
2023/08/19 03:50:59;;;;;;;5.60;5.00;;;;;;;20.50;100.00;99600.70;109668;1251;58860;-70
2023/08/19 03:53:25;;;;;;;8.60;6.20;;;;;;;20.53;100.00;99603.82;109565;1251;59407;-70
2023/08/19 03:55:53;;;;;;;7.60;5.20;;;;;;;20.51;100.00;99599.78;109652;1251;67693;-71
2023/08/19 03:58:19;;;;;;;6.20;5.20;;;;;;;20.46;100.00;99600.02;109642;1251;72527;-69
2023/08/19 04:00:47;;;;;;;5.50;5.00;;;;;;;20.41;100.00;99605.25;109481;1255;61970;-70
2023/08/19 04:03:15;;;;;;;6.40;4.60;;;;;;;20.43;100.00;99604.48;109548;1250;59043;-69
2023/08/19 04:05:41;;;;;;;8.00;4.50;;;;;;;20.55;100.00;99608.06;109624;1250;74418;-70
2023/08/19 04:08:08;;;;;;;7.20;5.50;;;;;;;20.77;100.00;99610.50;109587;1250;58957;-71
2023/08/19 04:10:35;;;;;;;5.00;4.50;;;;;;;20.99;100.00;99607.63;109634;1251;72671;-69
2023/08/19 04:13:02;;;;;;;5.00;4.50;;;;;;;21.27;100.00;99603.81;109554;1251;58962;-70
2023/08/19 04:15:31;;;;;;;5.20;4.80;;;;;;;21.55;100.00;99603.80;109526;1251;60242;-71
2023/08/19 04:17:58;;;;;;;5.80;5.30;;;;;;;21.85;100.00;99597.92;109679;1251;73302;-69
2023/08/19 04:20:25;;;;;;;8.10;5.00;;;;;;;22.13;100.00;99594.83;109541;1250;67675;-70
2023/08/19 04:22:51;;;;;;;7.00;5.00;;;;;;;22.42;100.00;99590.04;109419;1250;71083;-71
2023/08/19 04:25:18;;;;;;;5.10;4.60;;;;;;;22.70;100.00;99586.44;109560;1251;58945;-68
2023/08/19 04:27:45;;;;;;;5.20;4.70;;;;;;;22.99;100.00;99589.46;109571;1250;60054;-70
2023/08/19 04:30:12;;;;;;;5.20;4.80;;;;;;;23.26;100.00;99586.56;109656;1250;73424;-71
2023/08/19 04:32:39;;;;;;;5.20;4.70;;;;;;;23.53;100.00;99584.52;109512;1250;68020;-69
2023/08/19 04:35:06;;;;;;;7.90;4.50;;;;;;;23.77;100.00;99582.52;109578;1251;74336;-69
2023/08/19 04:37:33;;;;;;;4.80;4.40;;;;;;;24.01;100.00;99579.89;109614;1251;59143;-64
2023/08/19 04:40:01;;;;;;;5.60;5.10;;;;;;;24.20;100.00;99580.01;109466;1251;59073;-61
2023/08/19 04:42:38;;;;;;;4.90;4.60;;;;;;;24.37;100.00;99579.48;109408;1251;74403;-64
2023/08/19 04:45:06;;;;;;;4.70;4.30;;;;;;;24.58;100.00;99573.52;109454;1251;67711;-64
2023/08/19 04:47:34;;;;;;;5.30;4.80;;;;;;;24.73;100.00;99581.28;109478;1251;71351;-66
2023/08/19 04:50:07;;;;;;;6.80;5.00;;;;;;;24.92;100.00;99580.14;109412;1250;58954;-63
2023/08/19 04:52:35;;;;;;;5.00;4.40;;;;;;;25.07;100.00;99579.93;109555;1250;60633;-66
2023/08/19 04:55:04;;;;;;;6.10;5.60;;;;;;;25.22;100.00;99582.41;109654;1250;73607;-63
2023/08/19 04:57:31;;;;;;;5.20;4.60;;;;;;;25.46;100.00;99588.36;109542;1251;67923;-63
2023/08/19 04:59:58;;;;;;;4.90;4.20;;;;;;;25.61;100.00;99586.69;109472;1251;72727;-69
2023/08/19 05:02:24;;;;;;;5.00;4.60;;;;;;;25.62;100.00;99589.27;109555;1251;60074;-65
2023/08/19 05:04:51;;;;;;;6.40;5.60;;;;;;;25.69;100.00;99589.93;109609;1250;58958;-65
2023/08/19 05:07:17;;;;;;;5.30;4.70;;;;;;;25.83;100.00;99589.13;109668;1250;74610;-61
2023/08/19 05:09:44;;;;;;;4.90;4.30;;;;;;;25.96;100.00;99591.95;109644;1251;66644;-66
2023/08/19 05:12:11;;;;;;;5.80;4.60;;;;;;;26.07;100.00;99589.88;109657;1250;59039;-62
2023/08/19 05:14:37;;;;;;;5.00;4.60;;;;;;;26.24;100.00;99590.00;109458;1251;260825;-64
2023/08/19 05:17:04;;;;;;;5.80;4.90;;;;;;;26.39;100.00;99593.89;109681;1251;60042;-68
2023/08/19 05:19:33;;;;;;;4.70;4.30;;;;;;;26.40;100.00;99598.14;109546;1251;74761;-70
2023/08/19 05:22:00;;;;;;;12.70;5.40;;;;;;;26.30;100.00;99597.91;109669;1251;66605;-66
2023/08/19 05:24:27;;;;;;;7.60;5.10;;;;;;;26.16;100.00;99600.02;109586;1251;72622;-66
2023/08/19 05:26:53;;;;;;;6.00;4.50;;;;;;;26.08;100.00;99604.04;109677;1251;58928;-65
2023/08/19 05:29:20;;;;;;;4.50;4.10;;;;;;;26.04;100.00;99606.81;109616;1251;59104;-63
2023/08/19 05:31:47;;;;;;;5.10;4.30;;;;;;;25.99;100.00;99608.33;109610;1250;74420;-63
2023/08/19 05:34:13;;;;;;;4.30;4.00;;;;;;;25.92;100.00;99608.61;109656;1250;68270;-68
2023/08/19 05:36:40;;;;;;;4.70;4.30;;;;;;;25.85;100.00;99607.33;109654;1251;73445;-64
2023/08/19 05:39:07;;;;;;;4.70;4.20;;;;;;;25.89;100.00;99614.61;109572;1250;58995;-59
2023/08/19 05:41:34;;;;;;;6.20;3.70;;;;;;;25.96;100.00;99617.95;109564;1251;58885;-59
2023/08/19 05:44:00;;;;;;;3.70;3.40;;;;;;;26.04;100.00;99617.22;109594;1251;73465;-60
2023/08/19 05:46:27;;;;;;;5.10;4.40;;;;;;;26.14;100.00;99617.77;109516;1250;68266;-60
2023/08/19 05:48:54;;;;;;;5.00;4.20;;;;;;;26.38;100.00;99617.67;109439;1251;72658;-61
2023/08/19 05:51:21;;;;;;;7.00;4.20;;;;;;;26.70;100.00;99616.24;109565;1250;60247;-61
2023/08/19 05:53:47;;;;;;;4.00;3.70;;;;;;;26.99;100.00;99614.81;109648;1250;58923;-61
2023/08/19 05:56:14;;;;;;;3.80;3.50;;;;;;;27.19;100.00;99616.32;109688;1251;74635;-61
2023/08/19 05:58:40;;;;;;;4.20;3.80;;;;;;;27.25;100.00;99619.26;109703;1250;66839;-62
2023/08/19 06:01:07;;;;;;;3.80;3.30;;;;;;;27.32;100.00;99615.09;109609;1251;71533;-61
2023/08/19 06:03:34;;;;;;;6.20;4.20;;;;;;;27.39;100.00;99613.18;109504;1250;58939;-60
2023/08/19 06:06:05;;;;;;;4.10;3.80;;;;;;;27.51;100.00;99615.09;109466;1250;60246;-62
2023/08/19 06:08:32;;;;;;;4.00;3.60;;;;;;;27.72;100.00;99614.31;109515;1251;74820;-62
2023/08/19 06:11:04;;;;;;;4.00;3.50;;;;;;;27.89;100.00;99611.23;109491;1250;66531;-61
2023/08/19 06:13:34;;;;;;;;;;;;;;;28.16;100.00;99617.42;109418;1250;73027;-61
2023/08/19 06:16:01;;;;;;;3.50;3.10;;;;;;;28.36;100.00;99615.89;109474;1250;58998;-61
2023/08/19 06:18:28;;;;;;;5.00;3.40;;;;;;;28.50;100.00;99616.56;109642;1250;60426;-61
2023/08/19 06:20:56;;;;;;;3.70;3.00;;;;;;;28.64;100.00;99618.36;109586;1250;73444;-61
2023/08/19 06:23:22;;;;;;;4.60;3.30;;;;;;;28.73;98.35;99618.77;109651;1250;67737;-63
2023/08/19 06:25:49;;;;;;;6.00;3.40;;;;;;;28.78;97.03;99617.92;109512;1251;72351;-72
2023/08/19 06:28:17;;;;;;;5.10;3.50;;;;;;;28.89;98.59;99615.38;109662;1250;59360;-70
2023/08/19 06:30:43;;;;;;;5.10;3.20;;;;;;;29.17;97.52;99616.23;109649;1250;60423;-72
2023/08/19 06:33:11;;;;;;;3.40;3.10;;;;;;;29.48;96.57;99616.92;109624;1250;73656;-70
2023/08/19 06:35:38;;;;;;;4.60;3.10;;;;;;;29.79;93.34;99616.02;109627;1250;69109;-67
2023/08/19 06:38:13;;;;;;;3.40;3.10;;;;;;;29.95;90.15;99613.65;109685;1250;71190;-65
2023/08/19 06:40:42;;;;;;;4.80;3.30;;;;;;;30.01;89.33;99617.79;109572;1251;59111;-67
2023/08/19 06:43:08;;;;;;;5.80;3.30;;;;;;;30.03;88.14;99619.54;109676;1251;59990;-67
2023/08/19 06:45:35;;;;;;;4.40;3.00;;;;;;;30.08;88.30;99622.86;109521;1250;74521;-67
2023/08/19 06:48:02;;;;;;;5.80;3.30;;;;;;;30.25;87.05;99627.63;109440;1250;68016;-68
2023/08/19 06:50:29;;;;;;;3.70;3.20;;;;;;;30.51;87.06;99626.40;109502;1251;72432;-70
2023/08/19 06:52:56;;;;;;;6.00;3.00;;;;;;;30.82;82.28;99625.05;109576;1250;59071;-71
2023/08/19 06:55:23;;;;;;;5.40;3.10;;;;;;;30.97;81.10;99622.89;109684;1250;60254;-71
2023/08/19 06:58:03;;;;;;;7.20;3.50;;;;;;;31.15;79.34;99621.98;109723;1250;73167;-70
2023/08/19 07:00:31;;;;;;;6.40;3.50;;;;;;;31.31;79.57;99622.36;109531;1250;67892;-71
2023/08/19 07:02:58;;;;;;;5.70;3.40;;;;;;;31.43;77.29;99625.93;109622;1250;72721;-71
2023/08/19 07:05:24;;;;;;;6.50;3.20;;;;;;;31.53;75.78;99626.70;109646;1250;60151;-72
2023/08/19 07:07:51;;;;;;;5.70;3.00;;;;;;;31.53;71.79;99628.84;109589;1250;59018;-71
2023/08/19 07:10:20;;;;;;;6.90;2.90;;;;;;;31.43;70.40;99628.08;109543;1250;59463;-69
2023/08/19 07:12:47;;;;;;;5.00;3.00;;;;;;;31.43;73.31;99627.84;109672;1250;68933;-68
2023/08/19 07:15:14;;;;;;;4.60;3.10;;;;;;;31.59;74.58;99626.42;109675;1250;72496;-68
2023/08/19 07:17:45;;;;;;;5.10;3.30;;;;;;;31.74;71.67;99632.67;109623;1250;60165;-68
2023/08/19 07:20:20;;;;;;;4.10;3.30;;;;;;;31.71;71.06;99635.02;109730;1250;60047;-68
2023/08/19 07:22:48;;;;;;;5.00;2.80;;;;;;;31.78;72.77;99632.75;109595;1250;74839;-69
2023/08/19 07:25:15;;;;;;;6.70;3.10;;;;;;;31.96;71.77;99631.47;109554;1250;66418;-68
2023/08/19 07:27:42;;;;;;;4.60;2.90;;;;;;;32.05;71.88;99632.17;109635;1250;72461;-69
2023/08/19 07:30:09;;;;;;;8.60;3.30;;;;;;;32.02;70.40;99632.89;109587;1250;59287;-68
2023/08/19 07:32:36;;;;;;;7.70;3.60;;;;;;;31.89;67.09;99634.45;109717;1250;60411;-70
2023/08/19 07:35:04;;;;;;;7.60;3.20;;;;;;;31.86;67.91;99634.80;109656;1250;74619;-71
2023/08/19 07:37:31;;;;;;;4.00;3.20;;;;;;;31.83;68.18;99636.51;109659;1250;66533;-72
2023/08/19 07:39:58;;;;;;;5.10;3.00;;;;;;;31.93;67.58;99633.73;109631;1250;72450;-71
2023/08/19 07:42:27;;;;;;;7.30;3.40;;;;;;;32.06;66.67;99639.73;109619;1250;59021;-71
2023/08/19 07:44:53;;;;;;;4.80;3.00;;;;;;;32.10;67.50;99639.16;109636;1250;59866;-67
2023/08/19 07:47:20;;;;;;;6.30;3.40;;;;;;;32.13;66.32;99640.80;109644;1250;73074;-69
2023/08/19 07:49:47;;;;;;;6.60;3.80;;;;;;;32.14;65.27;99640.56;109580;1250;67888;-67
2023/08/19 07:52:13;;;;;;;5.50;3.10;;;;;;;32.07;67.26;99643.63;109661;1250;71097;-68
2023/08/19 07:54:40;;;;;;;8.00;3.50;;;;;;;32.05;65.45;99647.13;109674;1250;59460;-69
2023/08/19 07:57:07;;;;;;;9.20;3.20;;;;;;;32.13;62.64;99651.48;109613;1250;59679;-72
2023/08/19 07:59:34;;;;;;;5.20;3.30;;;;;;;32.19;60.37;99646.67;109667;1250;73446;-70
2023/08/19 08:02:00;;;;;;;5.60;3.00;;;;;;;32.29;61.26;99651.23;109641;1250;66748;-71
2023/08/19 08:04:28;;;;;;;6.10;3.50;;;;;;;32.55;60.31;99651.45;109657;1250;72620;-71
2023/08/19 08:06:55;;;;;;;6.40;3.40;;;;;;;32.71;60.04;99646.96;109604;1250;60859;-69
2023/08/19 08:09:22;;;;;;;9.50;3.90;;;;;;;32.79;59.55;99647.48;109692;1250;60267;-71
2023/08/19 08:11:48;;;;;;;10.50;3.50;;;;;;;32.78;58.01;99645.25;109626;1250;74467;-71
2023/08/19 08:14:16;;;;;;;6.70;3.10;;;;;;;32.79;58.29;99642.29;109715;1250;66487;-69
2023/08/19 08:16:43;;;;;;;7.70;3.30;;;;;;;33.27;56.17;99642.05;109625;1251;72758;-73
2023/08/19 08:19:09;;;;;;;10.30;3.30;;;;;;;34.06;53.85;99639.78;109485;1250;59112;-70
2023/08/19 08:21:36;;;;;;;7.10;3.10;;;;;;;34.63;51.25;99638.40;109679;1250;60165;-70
2023/08/19 08:24:03;;;;;;;10.50;3.10;;;;;;;35.32;50.49;99634.98;109652;1250;74036;-70
2023/08/19 08:26:30;;;;;;;5.40;3.20;;;;;;;36.05;48.04;99633.36;109666;1250;67873;-70
2023/08/19 08:28:56;;;;;;;4.60;2.60;;;;;;;36.68;44.54;99631.70;109607;1250;71480;-71
2023/08/19 08:31:23;;;;;;;5.40;2.70;;;;;;;37.11;41.04;99634.98;109641;1250;60357;-69
2023/08/19 08:33:50;;;;;;;4.20;2.50;;;;;;;37.43;40.15;99628.30;109661;1250;60272;-70
2023/08/19 08:36:17;;;;;;;5.30;2.70;;;;;;;37.57;41.11;99638.09;109648;1250;74483;-69
2023/08/19 08:38:43;;;;;;;6.20;2.40;;;;;;;37.59;39.41;99640.52;109714;1250;66979;-69
2023/08/19 08:41:10;;;;;;;6.30;2.80;;;;;;;37.19;40.00;99637.25;109685;1250;58978;-70
2023/08/19 08:43:36;;;;;;;5.50;2.60;;;;;;;36.78;40.97;99633.75;109551;1251;59343;-70
2023/08/19 08:46:03;;;;;;;5.80;3.00;;;;;;;36.77;41.95;99634.34;109440;1250;58929;-70
2023/08/19 08:48:32;;;;;;;2.80;2.50;;;;;;;36.81;41.27;99638.22;109609;1250;73822;-68
2023/08/19 08:50:59;;;;;;;7.50;3.10;;;;;;;36.57;40.58;99635.75;109731;1250;66469;-68
2023/08/19 08:53:26;;;;;;;3.60;2.50;;;;;;;36.75;40.74;99637.61;109686;1250;72670;-68
2023/08/19 08:55:53;;;;;;;3.00;2.70;;;;;;;37.11;41.43;99638.50;109680;1250;58964;-68
2023/08/19 08:58:19;;;;;;;4.40;2.40;;;;;;;37.51;38.77;99639.86;109499;1250;59789;-68
2023/08/19 09:00:47;;;;;;;4.30;2.60;;;;;;;37.69;37.72;99635.70;109620;1250;74433;-70
2023/08/19 09:03:13;;;;;;;4.40;2.50;;;;;;;37.70;36.85;99637.71;109551;1250;67673;-71
2023/08/19 09:05:40;;;;;;;6.30;3.00;;;;;;;37.83;36.62;99636.66;109674;1250;71375;-70
2023/08/19 09:08:08;;;;;;;7.00;2.80;;;;;;;38.36;36.25;99629.16;109561;1250;59053;-68
2023/08/19 09:10:35;;;;;;;3.50;2.80;;;;;;;38.66;35.95;99631.73;109520;1250;61162;-70
2023/08/19 09:13:02;;;;;;;4.50;3.30;;;;;;;38.42;35.78;99632.47;109470;1250;73369;-70
2023/08/19 09:15:29;;;;;;;3.00;2.70;;;;;;;38.03;35.69;99630.26;109561;1250;67579;-69
2023/08/19 09:17:57;;;;;;;3.50;2.40;;;;;;;37.74;36.38;99629.61;109657;1250;71274;-69
2023/08/19 09:20:25;;;;;;;5.70;2.40;;;;;;;37.85;36.20;99622.36;109652;1250;60179;-68
2023/08/19 09:22:51;;;;;;;3.20;2.20;;;;;;;38.13;36.26;99620.34;109687;1252;59992;-68
2023/08/19 09:25:18;;;;;;;2.00;1.80;;;;;;;38.36;34.44;99612.59;109719;1250;73556;-70
2023/08/19 09:27:46;;;;;;;2.60;2.40;;;;;;;38.55;34.64;99610.31;109685;1250;67967;-69
2023/08/19 09:30:16;;;;;;;4.10;2.50;;;;;;;38.75;35.41;99615.44;109611;1251;71827;-69
2023/08/19 09:32:44;;;;;;;2.60;2.30;;;;;;;38.97;34.16;99610.82;109455;1250;59090;-69
2023/08/19 09:35:12;;;;;;;3.90;2.80;;;;;;;38.91;33.96;99609.31;109649;1250;60119;-69
2023/08/19 09:37:39;;;;;;;5.30;2.50;;;;;;;38.35;33.45;99613.01;109660;1250;74631;-72
2023/08/19 09:40:17;;;;;;;3.80;2.50;;;;;;;37.60;34.92;99615.19;109639;1250;67920;-76
2023/08/19 09:42:48;;;;;;;4.90;2.40;;;;;;;37.58;35.63;99611.14;109620;1250;72623;-69
2023/08/19 09:45:19;;;;;;;3.40;2.50;;;;;;;37.93;35.08;99615.67;109676;1250;59075;-70
2023/08/19 09:47:47;;;;;;;4.20;2.40;;;;;;;37.87;34.54;99616.33;109630;1250;58992;-75
2023/08/19 09:50:23;;;;;;;3.90;2.30;;;;;;;37.92;35.17;99615.13;109657;1250;74826;-72
2023/08/19 09:52:57;;;;;;;3.20;2.00;;;;;;;37.96;34.43;99615.03;109619;1250;68086;-69
2023/08/19 09:55:32;;;;;;;4.70;2.30;;;;;;;37.55;33.94;99616.28;109624;1250;72824;-71
2023/08/19 09:57:58;;;;;;;3.00;2.20;;;;;;;37.30;34.98;99617.06;109661;1249;59302;-68
2023/08/19 10:00:25;;;;;;;3.80;2.10;;;;;;;37.17;36.25;99622.62;109710;1249;59786;-69
2023/08/19 10:02:51;;;;;;;3.00;2.30;;;;;;;37.53;35.84;99621.75;109644;1250;74974;-70
2023/08/19 10:05:18;;;;;;;4.50;2.30;;;;;;;37.78;35.20;99619.66;109642;1250;68046;-68
2023/08/19 10:08:00;;;;;;;3.80;2.60;;;;;;;37.93;34.92;99615.50;109575;1250;71474;-73
2023/08/19 10:10:29;;;;;;;5.60;2.40;;;;;;;38.18;35.31;99610.10;109622;1250;59186;-73
2023/08/19 10:12:56;;;;;;;4.40;2.40;;;;;;;38.46;34.67;99616.45;109577;1250;58952;-73
2023/08/19 10:15:23;;;;;;;3.00;2.20;;;;;;;38.55;33.77;99616.27;109416;1250;74683;-74
2023/08/19 10:17:52;;;;;;;4.20;2.30;;;;;;;38.29;33.54;99615.77;109555;1250;68647;-73
2023/08/19 10:20:18;;;;;;;2.30;2.10;;;;;;;38.10;34.51;99617.71;109536;1251;71147;-76
2023/08/19 10:22:47;;;;;;;6.10;2.40;;;;;;;38.10;34.83;99607.81;109483;1250;59147;-75
2023/08/19 10:25:13;;;;;;;4.90;2.20;;;;;;;37.91;34.98;99608.86;109399;1250;59598;-69
2023/08/19 10:27:41;;;;;;;4.80;2.60;;;;;;;37.49;34.83;99611.23;109507;1250;73637;-72
2023/08/19 10:30:28;;;;;;;2.80;2.30;;;;;;;37.18;35.83;99610.45;109595;1250;67651;-76
2023/08/19 10:32:55;;;;;;;3.60;2.40;;;;;;;36.93;35.61;99609.48;109540;1250;72764;-78
2023/08/19 10:35:21;;;;;;;2.90;2.30;;;;;;;36.65;36.60;99610.78;109581;1251;58978;-74
2023/08/19 10:37:51;;;;;;;4.40;2.40;;;;;;;36.76;36.82;99615.85;109697;1250;59091;-75
2023/08/19 10:40:21;;;;;;;3.50;2.10;;;;;;;36.73;36.16;99612.98;109631;1250;74709;-77
2023/08/19 10:42:58;;;;;;;3.50;2.20;;;;;;;36.53;36.20;99613.98;109468;1250;67657;-74
2023/08/19 10:45:31;;;;;;;3.70;2.30;;;;;;;36.55;36.41;99606.78;109638;1250;72579;-72
2023/08/19 10:47:58;;;;;;;3.10;2.10;;;;;;;36.47;36.59;99609.48;109730;1251;60122;-77
2023/08/19 10:50:25;;;;;;;2.20;1.90;;;;;;;36.46;36.58;99603.91;109585;1251;59021;-78
2023/08/19 10:53:03;;;;;;;2.30;2.10;;;;;;;36.32;36.38;99600.71;109630;1250;74707;-73
2023/08/19 10:55:52;;;;;;;2.80;2.20;;;;;;;35.96;36.67;99597.16;109582;1250;67934;-81
2023/08/19 10:58:19;;;;;;;2.30;2.10;;;;;;;35.79;38.05;99593.99;109658;1250;71466;-74
2023/08/19 11:00:45;;;;;;;6.40;2.40;;;;;;;36.21;38.32;99594.29;109474;1250;59404;-74
2023/08/19 11:03:12;;;;;;;2.20;1.80;;;;;;;36.56;37.45;99594.61;109625;1250;60260;-73
2023/08/19 11:05:51;;;;;;;2.00;1.80;;;;;;;36.45;36.90;99598.14;109666;1250;73529;-78
2023/08/19 11:08:18;;;;;;;2.40;2.00;;;;;;;36.31;37.00;99591.92;109611;1250;67972;-75
2023/08/19 11:10:47;;;;;;;7.50;2.80;;;;;;;35.98;37.84;99586.31;109653;1250;72693;-74
2023/08/19 11:13:14;;;;;;;4.70;2.10;;;;;;;35.82;38.30;99591.52;109648;1250;60305;-76
2023/08/19 11:15:41;;;;;;;5.00;2.20;;;;;;;35.58;38.86;99585.91;109508;1250;59034;-74
2023/08/19 11:18:07;;;;;;;2.20;2.10;;;;;;;35.41;39.66;99587.89;109654;1250;74315;-73
2023/08/19 11:20:35;;;;;;;3.50;2.30;;;;;;;35.44;39.17;99580.10;109671;1250;66711;-69
2023/08/19 11:23:02;;;;;;;4.70;2.50;;;;;;;35.59;39.98;99573.77;109573;1250;72599;-72
2023/08/19 11:25:36;;;;;;;4.80;2.10;;;;;;;35.72;39.91;99583.80;109571;1250;59037;-74